Time;durP1;ratioP1;P1;durP2;ratioP2;P2;SDS_P1;SDS_P2;PMS_P1;PMS_P2;Temp;Humidity;BMP_temperature;BMP_pressure;BME280_temperature;BME280_humidity;BME280_pressure;Samples;Min_cycle;Max_cycle;Signal;HPM_P1;HPM_P2
2024/01/13 00:00:25;;;;;;;2.47;2.28;;;15.10;52.30;;;;;;5113876;28;20176;-65
2024/01/13 00:02:51;;;;;;;2.42;2.22;;;15.10;52.20;;;;;;5113995;28;20177;-66
2024/01/13 00:05:18;;;;;;;2.58;2.38;;;15.10;52.30;;;;;;5113148;28;20170;-65
2024/01/13 00:07:43;;;;;;;2.85;2.65;;;15.10;52.30;;;;;;5113961;28;20216;-67
2024/01/13 00:10:09;;;;;;;2.20;2.08;;;15.10;52.20;;;;;;5113889;28;20193;-66
2024/01/13 00:12:34;;;;;;;2.58;2.40;;;15.00;52.20;;;;;;5112710;28;20567;-66
2024/01/13 00:15:00;;;;;;;2.28;2.17;;;15.00;52.30;;;;;;5114017;28;20546;-66
2024/01/13 00:17:25;;;;;;;2.72;2.53;;;15.00;52.30;;;;;;5112801;28;20299;-66
2024/01/13 00:19:51;;;;;;;2.33;2.22;;;15.00;52.30;;;;;;5113703;28;20230;-66
2024/01/13 00:22:16;;;;;;;2.72;2.53;;;15.00;52.30;;;;;;5113451;28;20181;-67
2024/01/13 00:24:42;;;;;;;2.75;2.38;;;15.00;52.30;;;;;;5112572;28;20843;-67
2024/01/13 00:27:07;;;;;;;2.65;2.45;;;15.00;52.30;;;;;;5113324;28;20586;-66
2024/01/13 00:29:33;;;;;;;2.28;2.08;;;15.00;52.30;;;;;;5113146;28;20195;-65
2024/01/13 00:31:58;;;;;;;2.28;2.10;;;14.90;52.30;;;;;;5112619;28;20193;-66
2024/01/13 00:34:24;;;;;;;2.25;2.05;;;14.90;52.30;;;;;;5113234;28;20165;-66
2024/01/13 00:36:49;;;;;;;2.38;2.17;;;14.90;52.30;;;;;;5113338;28;20205;-66
2024/01/13 00:39:15;;;;;;;2.53;2.30;;;14.90;52.30;;;;;;5112412;28;20173;-66
2024/01/13 00:41:41;;;;;;;2.28;2.15;;;14.90;52.40;;;;;;5113145;28;20181;-66
2024/01/13 00:44:06;;;;;;;2.40;2.20;;;14.90;52.40;;;;;;5113414;28;20260;-66
2024/01/13 00:46:32;;;;;;;2.15;2.05;;;14.90;52.40;;;;;;5112303;28;20289;-66
2024/01/13 00:48:57;;;;;;;2.47;2.28;;;14.90;52.40;;;;;;5113236;28;20332;-66
2024/01/13 00:51:23;;;;;;;2.30;2.10;;;14.90;52.40;;;;;;5112740;28;20225;-66
2024/01/13 00:53:48;;;;;;;2.30;2.10;;;14.80;52.40;;;;;;5112247;28;20256;-66
2024/01/13 00:56:14;;;;;;;2.08;1.98;;;14.90;52.40;;;;;;5112497;28;20208;-66
2024/01/13 00:58:39;;;;;;;2.28;2.15;;;14.80;52.50;;;;;;5112673;28;20213;-65
2024/01/13 01:01:05;;;;;;;2.00;1.90;;;14.80;52.40;;;;;;5112332;28;20184;-65
2024/01/13 01:03:30;;;;;;;2.10;2.00;;;14.80;52.40;;;;;;5112463;28;20643;-65
2024/01/13 01:05:57;;;;;;;2.25;2.03;;;14.80;52.40;;;;;;5112802;28;20169;-66
2024/01/13 01:08:23;;;;;;;3.33;2.40;;;14.80;52.50;;;;;;5093983;28;20173;-66
2024/01/13 01:10:48;;;;;;;2.72;2.53;;;14.80;52.50;;;;;;5112671;28;20173;-66
2024/01/13 01:13:14;;;;;;;2.30;2.10;;;14.80;52.50;;;;;;5112386;28;20165;-66
2024/01/13 01:15:40;;;;;;;2.70;2.50;;;14.80;52.50;;;;;;5111891;28;20296;-66
2024/01/13 01:18:05;;;;;;;2.35;2.15;;;14.80;52.50;;;;;;5112746;28;20181;-65
2024/01/13 01:20:37;;;;;;;2.60;2.40;;;14.80;52.50;;;;;;5112395;28;20191;-66
2024/01/13 01:23:02;;;;;;;2.92;2.72;;;14.70;52.50;;;;;;5112211;28;20169;-65
2024/01/13 01:25:28;;;;;;;2.33;2.20;;;14.70;52.50;;;;;;5111076;28;20536;-66
2024/01/13 01:27:54;;;;;;;2.83;2.55;;;14.70;52.50;;;;;;5112112;28;20259;-65
2024/01/13 01:30:19;;;;;;;2.50;2.30;;;14.70;52.50;;;;;;5112265;28;20252;-65
2024/01/13 01:32:45;;;;;;;2.53;2.20;;;14.70;52.50;;;;;;5112567;28;20185;-66
2024/01/13 01:35:11;;;;;;;2.78;2.58;;;14.70;52.50;;;;;;5110757;28;20180;-66
2024/01/13 01:37:36;;;;;;;3.03;2.72;;;14.70;52.50;;;;;;5111996;28;20256;-67
2024/01/13 01:40:02;;;;;;;3.22;3.00;;;14.70;52.60;;;;;;5112320;28;20256;-66
2024/01/13 01:42:28;;;;;;;3.08;2.80;;;14.70;52.50;;;;;;5111594;28;20169;-66
2024/01/13 01:44:54;;;;;;;2.83;2.63;;;14.70;52.60;;;;;;5112330;28;20632;-67
2024/01/13 01:47:20;;;;;;;3.20;2.90;;;14.60;52.60;;;;;;5094171;28;20219;-66
2024/01/13 01:49:46;;;;;;;2.72;2.53;;;14.70;52.50;;;;;;5093531;28;20586;-66
2024/01/13 01:52:12;;;;;;;3.25;3.05;;;14.70;52.60;;;;;;5094133;28;20188;-66
2024/01/13 01:54:37;;;;;;;3.53;3.22;;;14.60;52.60;;;;;;5111999;28;20188;-66
2024/01/13 01:57:03;;;;;;;3.40;3.10;;;14.60;52.60;;;;;;5111430;28;20204;-65
2024/01/13 01:59:29;;;;;;;3.58;3.28;;;14.60;52.60;;;;;;5112105;28;20165;-66
2024/01/13 02:01:54;;;;;;;3.80;3.47;;;14.60;52.60;;;;;;5094156;28;20201;-66
2024/01/13 02:04:20;;;;;;;3.40;3.10;;;14.60;52.60;;;;;;5111136;28;20173;-66
2024/01/13 02:06:45;;;;;;;3.47;3.17;;;14.60;52.70;;;;;;5112192;28;20235;-66
2024/01/13 02:09:12;;;;;;;3.35;3.05;;;14.60;52.70;;;;;;5112072;28;20635;-66
2024/01/13 02:11:37;;;;;;;3.80;3.45;;;14.50;52.60;;;;;;5093211;28;20215;-66
2024/01/13 02:14:03;;;;;;;3.50;3.20;;;14.60;52.70;;;;;;5112270;28;20226;-66
2024/01/13 02:16:29;;;;;;;3.40;3.15;;;14.60;52.70;;;;;;5111856;28;20228;-66
2024/01/13 02:18:54;;;;;;;4.00;3.70;;;14.60;52.80;;;;;;5111492;28;20177;-67
2024/01/13 02:21:23;;;;;;;3.47;3.20;;;14.50;52.80;;;;;;5111810;28;20177;-66
2024/01/13 02:23:48;;;;;;;3.40;3.15;;;14.50;52.70;;;;;;5112061;28;20174;-65
2024/01/13 02:26:14;;;;;;;3.47;3.17;;;14.50;52.70;;;;;;5111273;28;20256;-65
2024/01/13 02:28:39;;;;;;;3.42;3.13;;;14.50;52.70;;;;;;5112077;28;20962;-65
2024/01/13 02:31:05;;;;;;;3.70;3.40;;;14.50;52.70;;;;;;5111401;28;20707;-66
2024/01/13 02:33:30;;;;;;;3.55;3.25;;;14.50;52.80;;;;;;5111745;28;20177;-66
2024/01/13 02:35:56;;;;;;;3.58;3.30;;;14.50;52.80;;;;;;5111824;28;20209;-66
2024/01/13 02:38:24;;;;;;;4.18;3.60;;;14.50;52.80;;;;;;5110763;28;20173;-66
2024/01/13 02:40:50;;;;;;;3.85;3.53;;;14.50;52.80;;;;;;5111781;28;20180;-66
2024/01/13 02:43:15;;;;;;;3.97;3.50;;;14.40;52.80;;;;;;5111583;28;20267;-66
2024/01/13 02:45:41;;;;;;;3.67;3.30;;;14.40;52.80;;;;;;5111262;28;20268;-66
2024/01/13 02:48:14;;;;;;;3.75;3.45;;;14.40;52.80;;;;;;5115147;28;20271;-66
2024/01/13 02:50:39;;;;;;;4.43;3.58;;;14.40;52.80;;;;;;5115270;28;20265;-66
2024/01/13 02:53:05;;;;;;;3.45;3.20;;;14.40;52.90;;;;;;5114596;28;20263;-66
2024/01/13 02:55:30;;;;;;;4.10;3.30;;;14.40;52.80;;;;;;5114856;28;20177;-66
2024/01/13 02:57:56;;;;;;;3.88;3.58;;;14.40;52.80;;;;;;5115178;28;20221;-65
2024/01/13 03:00:21;;;;;;;3.50;3.20;;;14.40;52.90;;;;;;5114358;28;20214;-65
2024/01/13 03:02:47;;;;;;;3.88;3.13;;;14.40;53.00;;;;;;5115132;28;20606;-66
2024/01/13 03:05:12;;;;;;;3.75;3.40;;;14.40;52.90;;;;;;5115091;28;20260;-65
2024/01/13 03:07:38;;;;;;;3.35;3.08;;;14.40;52.90;;;;;;5113991;28;20267;-66
2024/01/13 03:10:04;;;;;;;3.47;3.17;;;14.30;52.90;;;;;;5114885;28;20272;-66
2024/01/13 03:12:29;;;;;;;3.85;3.00;;;14.30;53.00;;;;;;5114656;28;20260;-66
2024/01/13 03:14:56;;;;;;;3.75;3.45;;;14.30;52.90;;;;;;5114268;28;20564;-66
2024/01/13 03:17:21;;;;;;;3.15;2.95;;;14.30;53.00;;;;;;5114471;28;20675;-66
2024/01/13 03:19:47;;;;;;;3.05;2.85;;;14.30;52.90;;;;;;5114780;28;20173;-66
2024/01/13 03:22:12;;;;;;;4.00;3.55;;;14.30;52.90;;;;;;5113302;28;20189;-65
2024/01/13 03:24:38;;;;;;;3.47;3.17;;;14.30;53.00;;;;;;5114655;28;20169;-65
2024/01/13 03:27:03;;;;;;;3.20;3.00;;;14.30;53.00;;;;;;5114821;28;20180;-65
2024/01/13 03:29:29;;;;;;;3.42;3.13;;;14.30;52.90;;;;;;5113679;28;20172;-65
2024/01/13 03:31:54;;;;;;;3.20;2.90;;;14.30;53.00;;;;;;5114599;28;20177;-66
2024/01/13 03:34:20;;;;;;;3.20;3.00;;;14.20;52.90;;;;;;5113636;28;20169;-67
2024/01/13 03:36:45;;;;;;;3.45;3.20;;;14.30;53.70;;;;;;5114331;28;20212;-66
2024/01/13 03:39:11;;;;;;;3.72;3.10;;;14.30;53.00;;;;;;5114687;28;20173;-66
2024/01/13 03:41:37;;;;;;;2.90;2.70;;;14.30;53.00;;;;;;5113480;28;20177;-66
2024/01/13 03:44:02;;;;;;;2.90;2.70;;;14.30;53.10;;;;;;5114361;28;20177;-66
2024/01/13 03:46:28;;;;;;;2.78;2.58;;;14.30;53.00;;;;;;5114002;28;20173;-66
2024/01/13 03:48:56;;;;;;;3.30;3.00;;;14.20;53.00;;;;;;5113537;28;20181;-66
2024/01/13 03:51:22;;;;;;;3.28;3.08;;;14.20;53.00;;;;;;5113861;28;20194;-66
2024/01/13 03:53:47;;;;;;;3.10;2.90;;;14.20;53.10;;;;;;5114380;28;20260;-66
2024/01/13 03:56:13;;;;;;;3.20;3.00;;;14.20;53.10;;;;;;5113502;28;20314;-66
2024/01/13 03:58:38;;;;;;;3.33;3.03;;;14.20;53.10;;;;;;5112767;28;20291;-66
2024/01/13 04:01:04;;;;;;;3.40;3.10;;;14.20;53.10;;;;;;5114108;28;20177;-66
2024/01/13 04:03:29;;;;;;;3.45;3.15;;;14.20;53.10;;;;;;5112972;28;20699;-66
2024/01/13 04:05:56;;;;;;;3.40;3.08;;;14.20;53.10;;;;;;5113910;28;20191;-66
2024/01/13 04:08:21;;;;;;;3.25;2.92;;;14.20;53.10;;;;;;5113811;28;20173;-66
2024/01/13 04:10:47;;;;;;;2.97;2.72;;;14.20;53.10;;;;;;5113277;28;20195;-68
2024/01/13 04:13:13;;;;;;;3.65;3.35;;;14.10;53.10;;;;;;5113996;28;20641;-66
2024/01/13 04:15:38;;;;;;;3.13;2.85;;;14.10;53.10;;;;;;5113755;28;20201;-67
2024/01/13 04:18:04;;;;;;;3.28;2.97;;;14.20;53.20;;;;;;5113174;28;20650;-69
2024/01/13 04:20:30;;;;;;;3.67;3.33;;;14.20;53.20;;;;;;5113171;28;20178;-66
2024/01/13 04:22:55;;;;;;;3.20;3.00;;;14.10;53.20;;;;;;5113795;28;20211;-65
2024/01/13 04:25:21;;;;;;;3.67;3.35;;;14.10;53.30;;;;;;5112422;28;20255;-65
2024/01/13 04:27:48;;;;;;;3.60;3.30;;;14.10;53.20;;;;;;5113436;28;20184;-65
2024/01/13 04:30:14;;;;;;;3.90;3.60;;;14.10;53.30;;;;;;5113341;28;20165;-65
2024/01/13 04:32:40;;;;;;;4.05;3.75;;;14.10;53.20;;;;;;5112608;28;20200;-66
2024/01/13 04:35:06;;;;;;;3.75;3.45;;;14.10;53.20;;;;;;5113283;28;20234;-66
2024/01/13 04:37:31;;;;;;;3.80;3.42;;;14.10;53.20;;;;;;5113103;28;20679;-66
2024/01/13 04:39:57;;;;;;;3.90;3.60;;;14.10;53.30;;;;;;5094669;28;20169;-66
2024/01/13 04:42:22;;;;;;;4.03;3.50;;;14.10;53.30;;;;;;5113030;28;20547;-66
2024/01/13 04:44:48;;;;;;;4.03;3.65;;;14.10;53.30;;;;;;5112598;28;20173;-66
2024/01/13 04:47:16;;;;;;;4.47;4.07;;;14.10;53.30;;;;;;5112975;28;20171;-66
2024/01/13 04:49:41;;;;;;;3.95;3.55;;;14.00;53.30;;;;;;5095299;28;20643;-66
2024/01/13 04:52:07;;;;;;;4.32;3.97;;;14.10;53.40;;;;;;5112286;28;20642;-66
2024/01/13 04:54:33;;;;;;;4.03;3.70;;;14.00;53.20;;;;;;5112847;28;20205;-66
2024/01/13 04:57:00;;;;;;;3.72;3.42;;;14.00;53.30;;;;;;5112866;28;20209;-66
2024/01/13 04:59:25;;;;;;;4.10;3.70;;;14.00;53.40;;;;;;5112077;28;20188;-66
2024/01/13 05:01:53;;;;;;;3.90;3.60;;;14.00;53.50;;;;;;5112846;28;20204;-65
2024/01/13 05:04:18;;;;;;;4.22;3.80;;;14.00;53.40;;;;;;5112439;28;20670;-66
2024/01/13 05:06:44;;;;;;;3.63;3.33;;;14.00;53.30;;;;;;5093974;28;20216;-66
2024/01/13 05:09:10;;;;;;;4.88;4.25;;;14.00;53.40;;;;;;5112764;28;20169;-66
2024/01/13 05:11:35;;;;;;;4.55;4.10;;;14.00;53.40;;;;;;5112395;28;20173;-66
2024/01/13 05:14:01;;;;;;;4.28;3.88;;;14.00;53.40;;;;;;5111883;28;20187;-65
2024/01/13 05:16:27;;;;;;;3.83;3.53;;;14.00;53.40;;;;;;5112265;28;20245;-66
2024/01/13 05:18:52;;;;;;;3.85;3.55;;;14.00;54.10;;;;;;5112549;28;20184;-66
2024/01/13 05:21:17;;;;;;;4.53;4.13;;;14.00;53.40;;;;;;5111738;28;20177;-65
2024/01/13 05:23:43;;;;;;;4.05;3.75;;;14.00;53.50;;;;;;5112806;28;20172;-65
2024/01/13 05:26:08;;;;;;;4.25;3.88;;;14.00;53.50;;;;;;5112609;28;20177;-65
2024/01/13 05:28:34;;;;;;;4.32;4.03;;;14.00;53.40;;;;;;5111651;28;20168;-65
2024/01/13 05:31:00;;;;;;;3.80;3.50;;;14.00;53.50;;;;;;5094380;28;20192;-65
2024/01/13 05:33:26;;;;;;;4.55;3.85;;;14.00;53.50;;;;;;5112037;28;20173;-66
2024/01/13 05:35:53;;;;;;;4.30;3.92;;;14.00;53.50;;;;;;5111665;28;20678;-66
2024/01/13 05:38:19;;;;;;;3.60;3.30;;;13.90;53.60;;;;;;5111948;28;20176;-66
2024/01/13 05:40:44;;;;;;;3.35;3.05;;;14.00;53.60;;;;;;5112574;28;20225;-66
2024/01/13 05:43:10;;;;;;;3.78;3.47;;;14.00;53.60;;;;;;5111711;28;20662;-66
2024/01/13 05:45:36;;;;;;;3.88;3.58;;;14.00;53.50;;;;;;5112161;28;20540;-66
2024/01/13 05:48:01;;;;;;;3.80;3.47;;;14.00;53.50;;;;;;5111546;28;20531;-65
2024/01/13 05:50:27;;;;;;;3.00;2.80;;;14.10;54.10;;;;;;5111931;28;20650;-65
2024/01/13 05:52:53;;;;;;;3.58;3.28;;;14.10;53.50;;;;;;5112449;28;20173;-66
2024/01/13 05:55:18;;;;;;;3.50;3.20;;;14.20;53.40;;;;;;5111390;28;20591;-65
2024/01/13 05:57:44;;;;;;;3.30;3.00;;;14.20;53.40;;;;;;5112073;28;20807;-65
2024/01/13 06:00:09;;;;;;;3.58;3.28;;;14.30;53.30;;;;;;5112246;28;20177;-65
2024/01/13 06:02:35;;;;;;;3.28;2.97;;;14.40;53.20;;;;;;5111237;28;20663;-65
2024/01/13 06:05:01;;;;;;;3.00;2.80;;;14.50;53.10;;;;;;5112410;28;20173;-65
2024/01/13 06:07:26;;;;;;;2.53;2.33;;;14.70;53.60;;;;;;5112009;28;20180;-66
2024/01/13 06:09:52;;;;;;;2.95;2.70;;;14.90;52.70;;;;;;5111528;28;20662;-67
2024/01/13 06:12:17;;;;;;;3.08;2.88;;;15.10;52.50;;;;;;5111899;28;20181;-66
2024/01/13 06:14:43;;;;;;;2.80;2.60;;;15.20;52.40;;;;;;5112051;28;20173;-66
2024/01/13 06:17:08;;;;;;;3.10;2.90;;;15.30;52.20;;;;;;5111293;28;20291;-65
2024/01/13 06:19:35;;;;;;;2.55;2.38;;;15.40;52.00;;;;;;5111927;28;20173;-65
2024/01/13 06:22:01;;;;;;;2.80;2.60;;;15.60;51.90;;;;;;5114034;28;20185;-65
2024/01/13 06:24:27;;;;;;;2.80;2.60;;;15.60;51.70;;;;;;5115047;28;20543;-65
2024/01/13 06:26:52;;;;;;;2.60;2.40;;;15.60;51.60;;;;;;5115984;28;20260;-65
2024/01/13 06:29:18;;;;;;;2.35;2.17;;;15.70;51.60;;;;;;5115598;28;20169;-65
2024/01/13 06:31:43;;;;;;;2.35;2.22;;;15.70;51.50;;;;;;5114981;28;20655;-65
2024/01/13 06:34:09;;;;;;;2.58;2.38;;;15.70;51.40;;;;;;5115904;28;20166;-66
2024/01/13 06:36:35;;;;;;;2.50;2.30;;;15.70;51.40;;;;;;5115472;28;20630;-65
2024/01/13 06:39:00;;;;;;;2.38;2.25;;;15.80;51.40;;;;;;5115041;28;20162;-66
2024/01/13 06:41:26;;;;;;;2.83;2.63;;;15.70;51.30;;;;;;5115409;28;20176;-66
2024/01/13 06:43:51;;;;;;;2.88;2.67;;;15.80;51.40;;;;;;5115552;28;20173;-65
2024/01/13 06:46:17;;;;;;;2.25;2.13;;;15.70;51.40;;;;;;5114425;28;20184;-65
2024/01/13 06:48:44;;;;;;;2.42;2.33;;;15.80;51.70;;;;;;5115689;28;20173;-65
2024/01/13 06:51:09;;;;;;;2.55;2.35;;;15.90;51.50;;;;;;5115565;28;20256;-65
2024/01/13 06:53:35;;;;;;;2.00;1.90;;;15.90;51.50;;;;;;5114519;28;20406;-65
2024/01/13 06:56:00;;;;;;;2.17;2.08;;;16.10;51.30;;;;;;5115370;28;20197;-65
2024/01/13 06:58:26;;;;;;;2.03;1.92;;;16.20;51.10;;;;;;5114134;28;20236;-65
2024/01/13 07:00:51;;;;;;;2.58;1.98;;;16.30;50.80;;;;;;5115164;28;20170;-65
2024/01/13 07:03:17;;;;;;;1.95;1.85;;;16.40;50.60;;;;;;5115044;28;20181;-65
2024/01/13 07:05:42;;;;;;;2.10;2.00;;;16.50;50.50;;;;;;5114556;28;20177;-66
2024/01/13 07:08:08;;;;;;;1.85;1.75;;;16.50;50.50;;;;;;5115261;28;20177;-65
2024/01/13 07:10:34;;;;;;;2.33;1.73;;;16.50;50.50;;;;;;5114690;28;20176;-65
2024/01/13 07:13:00;;;;;;;1.45;1.35;;;16.50;50.50;;;;;;5114312;28;20185;-65
2024/01/13 07:15:25;;;;;;;1.90;1.80;;;16.50;50.60;;;;;;5114516;28;20180;-65
2024/01/13 07:17:52;;;;;;;1.73;1.63;;;16.60;50.50;;;;;;5115044;28;20188;-65
2024/01/13 07:20:17;;;;;;;1.85;1.75;;;16.60;50.40;;;;;;5113760;28;20294;-65
2024/01/13 07:22:43;;;;;;;1.85;1.70;;;16.60;50.40;;;;;;5114920;28;20260;-65
2024/01/13 07:25:08;;;;;;;1.80;1.70;;;16.60;50.50;;;;;;5114768;28;20257;-64
2024/01/13 07:27:34;;;;;;;1.70;1.60;;;16.70;50.40;;;;;;5113651;28;20741;-65
2024/01/13 07:30:00;;;;;;;1.98;1.88;;;16.70;50.40;;;;;;5114587;28;20181;-65
2024/01/13 07:32:26;;;;;;;1.92;1.83;;;16.70;50.40;;;;;;5113829;28;20180;-65
2024/01/13 07:34:51;;;;;;;1.55;1.45;;;16.70;50.30;;;;;;5113492;28;20173;-66
2024/01/13 07:37:17;;;;;;;1.80;1.70;;;16.80;50.30;;;;;;5113987;28;20217;-66
2024/01/13 07:39:45;;;;;;;1.75;1.65;;;16.80;50.30;;;;;;5114552;28;20226;-65
2024/01/13 07:42:11;;;;;;;2.08;1.95;;;16.80;50.30;;;;;;5113704;28;20180;-66
2024/01/13 07:44:36;;;;;;;1.95;1.85;;;16.90;50.30;;;;;;5114105;28;20540;-66
2024/01/13 07:47:03;;;;;;;2.00;1.90;;;16.90;50.20;;;;;;5114617;28;20636;-66
2024/01/13 07:49:29;;;;;;;2.20;2.00;;;16.90;50.20;;;;;;5113176;28;20765;-66
2024/01/13 07:51:56;;;;;;;2.03;1.83;;;16.90;50.20;;;;;;5114179;28;20602;-66
2024/01/13 07:54:22;;;;;;;1.83;1.73;;;16.90;50.10;;;;;;5113886;28;20177;-66
2024/01/13 07:56:47;;;;;;;1.77;1.67;;;16.90;50.20;;;;;;5113450;28;20236;-65
2024/01/13 07:59:13;;;;;;;2.20;2.00;;;16.90;50.00;;;;;;5113929;28;20595;-65
2024/01/13 08:01:39;;;;;;;2.00;1.90;;;17.00;50.10;;;;;;5113418;28;20169;-65
2024/01/13 08:04:05;;;;;;;2.10;1.90;;;17.00;50.00;;;;;;5114139;28;20535;-66
2024/01/13 08:06:31;;;;;;;2.05;1.85;;;17.00;50.10;;;;;;5113875;28;20200;-66
2024/01/13 08:08:57;;;;;;;1.95;1.80;;;17.00;50.00;;;;;;5113332;28;20684;-66
2024/01/13 08:11:22;;;;;;;2.35;2.25;;;17.00;50.10;;;;;;5113681;28;20178;-66
2024/01/13 08:13:48;;;;;;;2.28;2.08;;;17.00;50.10;;;;;;5113860;28;20181;-66
2024/01/13 08:16:13;;;;;;;2.25;2.10;;;17.00;50.00;;;;;;5112617;28;20308;-65
2024/01/13 08:18:39;;;;;;;2.20;2.00;;;17.00;50.00;;;;;;5113692;28;20264;-66
2024/01/13 08:21:04;;;;;;;2.50;2.30;;;17.00;50.00;;;;;;5113692;28;20256;-65
2024/01/13 08:23:30;;;;;;;2.35;2.15;;;17.10;50.00;;;;;;5112684;28;20256;-65
2024/01/13 08:25:56;;;;;;;2.47;2.28;;;17.10;50.00;;;;;;5113616;28;20520;-65
2024/01/13 08:28:21;;;;;;;2.35;2.17;;;17.20;50.00;;;;;;5113179;28;20201;-65
2024/01/13 08:30:47;;;;;;;2.50;2.30;;;17.20;49.90;;;;;;5112930;28;20176;-65
2024/01/13 08:33:13;;;;;;;2.30;2.10;;;17.10;50.00;;;;;;5113622;28;20169;-66
2024/01/13 08:35:38;;;;;;;2.00;1.90;;;17.20;50.00;;;;;;5113037;28;20225;-66
2024/01/13 08:38:07;;;;;;;2.30;2.10;;;17.20;50.00;;;;;;5112635;28;20181;-66
2024/01/13 08:40:36;;;;;;;2.10;2.00;;;17.20;50.00;;;;;;5112827;28;20649;-66
2024/01/13 08:43:03;;;;;;;2.63;2.42;;;17.20;50.00;;;;;;5113147;28;20185;-66
2024/01/13 08:45:29;;;;;;;2.63;2.42;;;17.20;49.90;;;;;;5112044;28;20547;-66
2024/01/13 08:47:58;;;;;;;2.53;2.33;;;17.20;50.00;;;;;;5113274;28;20223;-65
2024/01/13 08:50:24;;;;;;;2.50;2.30;;;17.20;50.00;;;;;;5112950;28;20208;-66
2024/01/13 08:52:54;;;;;;;2.70;2.47;;;17.20;49.90;;;;;;5112438;28;20266;-66
2024/01/13 08:55:21;;;;;;;2.10;1.90;;;17.30;49.90;;;;;;5112737;28;20169;-66
2024/01/13 08:57:46;;;;;;;2.53;2.33;;;17.30;49.90;;;;;;5112783;28;20286;-65
2024/01/13 09:00:13;;;;;;;2.28;2.08;;;17.30;50.00;;;;;;5112562;28;20173;-65
2024/01/13 09:02:39;;;;;;;2.38;2.22;;;17.30;49.90;;;;;;5112748;28;20173;-66
2024/01/13 09:05:05;;;;;;;2.20;2.10;;;17.40;49.90;;;;;;5112251;28;20250;-66
2024/01/13 09:07:31;;;;;;;2.10;2.00;;;17.30;50.00;;;;;;5112514;28;20185;-66
2024/01/13 09:09:57;;;;;;;1.90;1.80;;;17.30;50.00;;;;;;5112746;28;20647;-66
2024/01/13 09:12:22;;;;;;;1.92;1.83;;;17.20;50.00;;;;;;5111622;28;20271;-66
2024/01/13 09:14:48;;;;;;;1.98;1.88;;;17.10;50.70;;;;;;5112529;28;20226;-66
2024/01/13 09:17:13;;;;;;;1.63;1.52;;;17.10;50.20;;;;;;5112527;28;20304;-66
2024/01/13 09:19:39;;;;;;;2.38;2.17;;;17.00;50.30;;;;;;5111946;28;20172;-65
2024/01/13 09:22:04;;;;;;;1.95;1.80;;;16.90;50.50;;;;;;5112649;28;20179;-66
2024/01/13 09:24:30;;;;;;;2.10;2.00;;;16.90;50.50;;;;;;5112237;28;20191;-65
2024/01/13 09:26:56;;;;;;;1.70;1.60;;;16.90;50.60;;;;;;5111841;28;20548;-65
2024/01/13 09:29:22;;;;;;;1.80;1.70;;;16.80;50.60;;;;;;5112167;28;20187;-66
2024/01/13 09:31:49;;;;;;;1.67;1.58;;;16.80;50.70;;;;;;5112600;28;20259;-65
2024/01/13 09:34:14;;;;;;;1.63;1.52;;;16.80;50.70;;;;;;5111544;28;20651;-65
2024/01/13 09:36:45;;;;;;;1.52;1.42;;;16.80;50.80;;;;;;5112313;28;20253;-66
2024/01/13 09:39:11;;;;;;;2.03;1.83;;;16.80;50.70;;;;;;5112143;28;20214;-65
2024/01/13 09:41:37;;;;;;;1.73;1.63;;;16.80;50.70;;;;;;5111555;28;20177;-66
2024/01/13 09:44:08;;;;;;;1.70;1.60;;;16.90;50.80;;;;;;5112347;28;20584;-66
2024/01/13 09:46:34;;;;;;;1.90;1.75;;;16.80;50.70;;;;;;5112239;28;20180;-65
2024/01/13 09:48:59;;;;;;;1.60;1.50;;;16.80;50.70;;;;;;5093583;28;20539;-66
2024/01/13 09:51:25;;;;;;;1.58;1.48;;;16.80;50.80;;;;;;5093853;28;20173;-66
2024/01/13 09:53:54;;;;;;;1.73;1.63;;;16.80;50.70;;;;;;5094128;28;20180;-66
2024/01/13 09:56:24;;;;;;;1.30;1.20;;;16.90;50.80;;;;;;5112060;28;20238;-66
2024/01/13 09:58:49;;;;;;;1.45;1.35;;;16.90;50.80;;;;;;5098090;28;20683;-65
2024/01/13 10:01:15;;;;;;;1.75;1.63;;;16.80;50.70;;;;;;5115414;28;20294;-65
2024/01/13 10:03:40;;;;;;;1.67;1.30;;;16.80;50.70;;;;;;5116269;28;20180;-67
2024/01/13 10:06:07;;;;;;;1.52;1.42;;;16.80;50.70;;;;;;5116281;28;20272;-66
2024/01/13 10:08:32;;;;;;;1.50;1.40;;;16.80;50.80;;;;;;5080418;28;20196;-66
2024/01/13 10:11:02;;;;;;;1.75;1.33;;;16.90;50.70;;;;;;5116599;28;20624;-67
2024/01/13 10:13:27;;;;;;;1.40;1.30;;;16.80;50.70;;;;;;5116174;28;20169;-67
2024/01/13 10:15:53;;;;;;;1.48;1.30;;;16.90;50.80;;;;;;5115372;28;20201;-66
2024/01/13 10:18:19;;;;;;;1.50;1.40;;;16.90;50.80;;;;;;5115787;28;20257;-65
2024/01/13 10:20:45;;;;;;;1.48;1.38;;;16.90;50.70;;;;;;5116016;28;20181;-65
2024/01/13 10:23:11;;;;;;;1.38;1.27;;;16.80;50.80;;;;;;5115472;28;20177;-65
2024/01/13 10:25:36;;;;;;;1.40;1.25;;;16.80;50.80;;;;;;5115752;28;20500;-65
2024/01/13 10:28:03;;;;;;;1.33;1.30;;;16.80;50.90;;;;;;5115956;28;20511;-66
2024/01/13 10:30:28;;;;;;;1.50;1.40;;;16.80;50.90;;;;;;5114871;28;20173;-65
2024/01/13 10:32:54;;;;;;;1.50;1.40;;;16.80;50.90;;;;;;5115814;28;20169;-66
2024/01/13 10:35:21;;;;;;;1.33;1.23;;;16.80;50.90;;;;;;5080338;28;20204;-66
2024/01/13 10:37:46;;;;;;;1.30;1.20;;;16.80;50.80;;;;;;5114998;28;20219;-67
2024/01/13 10:40:12;;;;;;;1.15;1.05;;;16.80;50.90;;;;;;5115906;28;20177;-66
2024/01/13 10:42:38;;;;;;;1.40;1.30;;;16.80;50.80;;;;;;5115173;28;20712;-66
2024/01/13 10:45:07;;;;;;;1.10;1.10;;;16.80;50.90;;;;;;5096751;28;20254;-66
2024/01/13 10:47:34;;;;;;;1.23;1.13;;;16.80;50.90;;;;;;5115139;28;20229;-65
2024/01/13 10:50:00;;;;;;;1.00;1.00;;;16.80;50.80;;;;;;5080600;28;20195;-65
2024/01/13 10:52:57;;;;;;;1.17;1.17;;;16.80;50.80;;;;;;5114612;28;20636;-66
2024/01/13 10:55:23;;;;;;;1.35;1.25;;;16.80;50.90;;;;;;5099723;28;20715;-66
2024/01/13 10:57:48;;;;;;;1.20;1.10;;;16.80;50.90;;;;;;5096262;28;20247;-65
2024/01/13 11:00:14;;;;;;;1.35;1.23;;;16.80;50.80;;;;;;5115134;28;20636;-65
2024/01/13 11:02:41;;;;;;;1.48;1.27;;;16.80;50.90;;;;;;5096924;28;20264;-66
2024/01/13 11:05:08;;;;;;;1.40;1.30;;;16.80;50.90;;;;;;5096307;28;20654;-65
2024/01/13 11:07:34;;;;;;;1.30;1.20;;;16.80;50.90;;;;;;5096676;28;20185;-66
2024/01/13 11:09:59;;;;;;;1.40;1.27;;;16.80;50.90;;;;;;5115044;28;20523;-66
2024/01/13 11:12:38;;;;;;;1.10;1.10;;;16.70;50.90;;;;;;5079016;28;20177;-66
2024/01/13 11:15:05;;;;;;;1.30;1.20;;;16.80;51.00;;;;;;5080452;28;20180;-66
2024/01/13 11:17:31;;;;;;;1.50;1.40;;;16.70;50.90;;;;;;5114497;28;20687;-66
2024/01/13 11:19:56;;;;;;;1.52;1.42;;;16.70;50.90;;;;;;5114288;28;20177;-66
2024/01/13 11:22:33;;;;;;;1.48;1.38;;;16.70;51.00;;;;;;5114674;28;20608;-65
2024/01/13 11:24:58;;;;;;;1.67;1.50;;;16.60;51.00;;;;;;5114866;28;20278;-65
2024/01/13 11:27:24;;;;;;;1.70;1.60;;;16.50;51.10;;;;;;5113622;28;20500;-66
2024/01/13 11:29:53;;;;;;;1.40;1.30;;;16.50;51.30;;;;;;5096669;28;20188;-65
2024/01/13 11:32:18;;;;;;;1.40;1.30;;;16.50;51.30;;;;;;5114498;28;20175;-65
2024/01/13 11:34:44;;;;;;;1.52;1.42;;;16.50;51.40;;;;;;5079045;28;20252;-66
2024/01/13 11:37:10;;;;;;;1.25;1.15;;;16.50;51.40;;;;;;5079751;28;20213;-66
2024/01/13 11:39:36;;;;;;;1.67;1.42;;;16.50;51.40;;;;;;5113548;28;20181;-65
2024/01/13 11:42:03;;;;;;;1.60;1.50;;;16.50;51.40;;;;;;5096210;28;20173;-66
2024/01/13 11:44:44;;;;;;;3.20;1.77;;;16.50;51.40;;;;;;5096376;28;20188;-66
2024/01/13 11:47:13;;;;;;;1.85;1.75;;;16.50;51.30;;;;;;5113693;28;20573;-66
2024/01/13 11:49:39;;;;;;;2.20;2.00;;;16.50;51.30;;;;;;5114129;28;20169;-66
2024/01/13 11:52:12;;;;;;;1.83;1.73;;;16.50;51.40;;;;;;5114405;28;20256;-66
2024/01/13 11:54:38;;;;;;;1.88;1.77;;;16.50;51.30;;;;;;5113104;28;20177;-66
2024/01/13 11:57:08;;;;;;;2.03;1.92;;;16.50;51.40;;;;;;5114001;28;20296;-66
2024/01/13 11:59:33;;;;;;;2.28;2.15;;;16.50;51.40;;;;;;5113948;28;20620;-66
2024/01/13 12:01:59;;;;;;;2.08;1.88;;;16.40;51.40;;;;;;5113377;28;20180;-67
2024/01/13 12:04:26;;;;;;;2.55;2.30;;;16.40;51.60;;;;;;5095748;28;20173;-66
2024/01/13 12:06:53;;;;;;;2.78;2.45;;;16.30;51.70;;;;;;5114044;28;20188;-68
2024/01/13 12:09:23;;;;;;;2.17;1.98;;;16.30;51.70;;;;;;5095081;28;20177;-67
2024/01/13 12:12:05;;;;;;;2.83;2.60;;;16.30;51.70;;;;;;5096661;28;20177;-67
2024/01/13 12:14:33;;;;;;;2.38;2.28;;;16.30;51.70;;;;;;5113631;28;20179;-66
2024/01/13 12:16:59;;;;;;;2.50;2.30;;;16.30;51.70;;;;;;5112970;28;20223;-66
2024/01/13 12:19:32;;;;;;;2.60;2.40;;;16.30;51.60;;;;;;5112761;28;20259;-65
2024/01/13 12:21:57;;;;;;;3.22;2.85;;;16.30;51.50;;;;;;5112949;28;20176;-66
2024/01/13 12:24:30;;;;;;;3.08;2.78;;;16.30;51.50;;;;;;5095325;28;20226;-65
2024/01/13 12:26:56;;;;;;;2.78;2.50;;;16.40;51.50;;;;;;5113799;28;20181;-65
2024/01/13 12:29:24;;;;;;;2.70;2.25;;;16.30;51.50;;;;;;5112617;28;20188;-65
2024/01/13 12:31:50;;;;;;;3.00;2.70;;;16.30;51.50;;;;;;5113528;28;20189;-66
2024/01/13 12:34:15;;;;;;;3.28;2.97;;;16.30;51.60;;;;;;5113023;28;20635;-66
2024/01/13 12:36:41;;;;;;;3.35;3.05;;;16.20;51.70;;;;;;5112883;28;20209;-66
2024/01/13 12:39:07;;;;;;;3.50;3.20;;;16.20;51.80;;;;;;5113514;28;20173;-66
2024/01/13 12:41:33;;;;;;;3.53;2.90;;;16.10;51.90;;;;;;5112831;28;20495;-67